sensor_id;sensor_type;location;lat;lon;timestamp;pressure;altitude;pressure_sealevel;temperature;humidity
65227;BME280;51805;49.012;12.104;2023-12-20T00:01:23;97752.25;;;22.04;49.26
65227;BME280;51805;49.012;12.104;2023-12-20T00:03:48;97760.38;;;22.04;48.99
65227;BME280;51805;49.012;12.104;2023-12-20T00:06:14;97761.44;;;22.08;49.17
65227;BME280;51805;49.012;12.104;2023-12-20T00:08:42;97744.69;;;22.06;49.24
65227;BME280;51805;49.012;12.104;2023-12-20T00:11:07;97727.97;;;21.99;49.12
65227;BME280;51805;49.012;12.104;2023-12-20T00:13:33;97729.00;;;22.03;49.39
65227;BME280;51805;49.012;12.104;2023-12-20T00:15:58;97722.00;;;22.02;49.34
65227;BME280;51805;49.012;12.104;2023-12-20T00:18:23;97717.69;;;21.96;49.34
65227;BME280;51805;49.012;12.104;2023-12-20T00:20:48;97726.59;;;22.02;49.21
65227;BME280;51805;49.012;12.104;2023-12-20T00:23:14;97722.00;;;22.02;49.37
65227;BME280;51805;49.012;12.104;2023-12-20T00:25:39;97730.13;;;21.97;49.48
65227;BME280;51805;49.012;12.104;2023-12-20T00:28:05;97716.06;;;21.95;49.22
65227;BME280;51805;49.012;12.104;2023-12-20T00:30:31;97715.75;;;22.02;49.22
65227;BME280;51805;49.012;12.104;2023-12-20T00:32:56;97715.19;;;22.05;49.17
65227;BME280;51805;49.012;12.104;2023-12-20T00:35:21;97717.09;;;22.04;49.18
65227;BME280;51805;49.012;12.104;2023-12-20T00:37:46;97720.09;;;21.98;49.25
65227;BME280;51805;49.012;12.104;2023-12-20T00:40:12;97726.03;;;22.00;49.34
65227;BME280;51805;49.012;12.104;2023-12-20T00:42:37;97708.22;;;21.94;49.42
65227;BME280;51805;49.012;12.104;2023-12-20T00:45:03;97713.91;;;21.97;49.32
65227;BME280;51805;49.012;12.104;2023-12-20T00:47:28;97700.69;;;21.91;49.22
65227;BME280;51805;49.012;12.104;2023-12-20T00:49:53;97716.88;;;21.96;49.34
65227;BME280;51805;49.012;12.104;2023-12-20T00:52:19;97698.78;;;21.91;49.66
65227;BME280;51805;49.012;12.104;2023-12-20T00:54:44;97719.06;;;21.94;49.38
65227;BME280;51805;49.012;12.104;2023-12-20T00:57:10;97712.81;;;21.93;49.50
65227;BME280;51805;49.012;12.104;2023-12-20T00:59:35;97705.00;;;21.92;49.70
65227;BME280;51805;49.012;12.104;2023-12-20T01:02:01;97711.78;;;21.89;49.45
65227;BME280;51805;49.012;12.104;2023-12-20T01:04:26;97705.56;;;21.89;49.80
65227;BME280;51805;49.012;12.104;2023-12-20T01:06:52;97700.72;;;21.86;49.62
65227;BME280;51805;49.012;12.104;2023-12-20T01:09:17;97707.97;;;21.90;49.49
65227;BME280;51805;49.012;12.104;2023-12-20T01:11:43;97709.09;;;21.84;49.81
65227;BME280;51805;49.012;12.104;2023-12-20T01:14:08;97702.38;;;21.82;49.61
65227;BME280;51805;49.012;12.104;2023-12-20T01:16:33;97711.78;;;21.89;49.68
65227;BME280;51805;49.012;12.104;2023-12-20T01:18:58;97707.53;;;21.78;49.68
65227;BME280;51805;49.012;12.104;2023-12-20T01:21:24;97712.66;;;21.80;49.71
65227;BME280;51805;49.012;12.104;2023-12-20T01:23:49;97713.22;;;21.77;49.67
65227;BME280;51805;49.012;12.104;2023-12-20T01:26:14;97719.69;;;21.81;49.57
65227;BME280;51805;49.012;12.104;2023-12-20T01:28:40;97712.09;;;21.83;49.63
65227;BME280;51805;49.012;12.104;2023-12-20T01:31:05;97711.59;;;21.81;49.83
65227;BME280;51805;49.012;12.104;2023-12-20T01:33:30;97717.22;;;21.84;49.73
65227;BME280;51805;49.012;12.104;2023-12-20T01:35:56;97698.88;;;21.76;49.70
65227;BME280;51805;49.012;12.104;2023-12-20T01:38:21;97685.66;;;21.70;49.88
65227;BME280;51805;49.012;12.104;2023-12-20T01:40:46;97694.28;;;21.77;49.88
65227;BME280;51805;49.012;12.104;2023-12-20T01:43:12;97681.03;;;21.75;49.83
65227;BME280;51805;49.012;12.104;2023-12-20T01:45:38;97669.94;;;21.77;49.75
65227;BME280;51805;49.012;12.104;2023-12-20T01:48:04;97683.19;;;21.78;49.85
65227;BME280;51805;49.012;12.104;2023-12-20T01:50:31;97678.88;;;21.72;50.03
65227;BME280;51805;49.012;12.104;2023-12-20T01:52:58;97676.72;;;21.69;49.99
65227;BME280;51805;49.012;12.104;2023-12-20T01:55:25;97678.03;;;21.72;49.94
65227;BME280;51805;49.012;12.104;2023-12-20T01:57:52;97678.03;;;21.72;49.98
65227;BME280;51805;49.012;12.104;2023-12-20T02:00:18;97671.28;;;21.74;49.88
65227;BME280;51805;49.012;12.104;2023-12-20T02:02:44;97662.16;;;21.65;50.19
65227;BME280;51805;49.012;12.104;2023-12-20T02:05:10;97664.59;;;21.67;50.09
65227;BME280;51805;49.012;12.104;2023-12-20T02:07:36;97650.25;;;21.61;49.93
65227;BME280;51805;49.012;12.104;2023-12-20T02:10:01;97663.75;;;21.66;50.04
65227;BME280;51805;49.012;12.104;2023-12-20T02:12:27;97661.09;;;21.61;50.22
65227;BME280;51805;49.012;12.104;2023-12-20T02:14:52;97662.94;;;21.66;50.16
65227;BME280;51805;49.012;12.104;2023-12-20T02:17:18;97648.09;;;21.63;50.12
65227;BME280;51805;49.012;12.104;2023-12-20T02:19:43;97649.75;;;21.59;50.37
65227;BME280;51805;49.012;12.104;2023-12-20T02:22:12;97637.84;;;21.60;49.98
65227;BME280;51805;49.012;12.104;2023-12-20T02:24:38;97641.59;;;21.64;50.24
65227;BME280;51805;49.012;12.104;2023-12-20T02:27:05;97632.16;;;21.62;50.28
65227;BME280;51805;49.012;12.104;2023-12-20T02:29:32;97635.69;;;21.62;50.33
65227;BME280;51805;49.012;12.104;2023-12-20T02:31:57;97624.34;;;21.55;50.25
65227;BME280;51805;49.012;12.104;2023-12-20T02:34:23;97617.34;;;21.54;50.24
65227;BME280;51805;49.012;12.104;2023-12-20T02:36:48;97621.94;;;21.54;50.30
65227;BME280;51805;49.012;12.104;2023-12-20T02:39:14;97623.25;;;21.56;50.32
65227;BME280;51805;49.012;12.104;2023-12-20T02:41:39;97621.66;;;21.55;50.21
65227;BME280;51805;49.012;12.104;2023-12-20T02:44:04;97615.69;;;21.53;50.30
65227;BME280;51805;49.012;12.104;2023-12-20T02:46:29;97622.75;;;21.54;50.24
65227;BME280;51805;49.012;12.104;2023-12-20T02:48:55;97615.69;;;21.53;50.41
65227;BME280;51805;49.012;12.104;2023-12-20T02:51:20;97615.47;;;21.50;50.39
65227;BME280;51805;49.012;12.104;2023-12-20T02:53:45;97616.25;;;21.50;50.65
65227;BME280;51805;49.012;12.104;2023-12-20T02:56:11;97611.41;;;21.47;50.41
65227;BME280;51805;49.012;12.104;2023-12-20T02:58:36;97618.22;;;21.44;50.41
65227;BME280;51805;49.012;12.104;2023-12-20T03:01:01;97614.41;;;21.45;50.51
65227;BME280;51805;49.012;12.104;2023-12-20T03:03:26;97618.47;;;21.48;50.53
65227;BME280;51805;49.012;12.104;2023-12-20T03:05:52;97625.47;;;21.49;50.41
65227;BME280;51805;49.012;12.104;2023-12-20T03:08:17;97606.84;;;21.42;50.47
65227;BME280;51805;49.012;12.104;2023-12-20T03:10:42;97611.97;;;21.44;50.53
65227;BME280;51805;49.012;12.104;2023-12-20T03:13:07;97604.16;;;21.42;50.48
65227;BME280;51805;49.012;12.104;2023-12-20T03:15:33;97616.03;;;21.47;50.73
65227;BME280;51805;49.012;12.104;2023-12-20T03:17:58;97598.53;;;21.39;50.70
65227;BME280;51805;49.012;12.104;2023-12-20T03:20:23;97588.50;;;21.39;50.80
65227;BME280;51805;49.012;12.104;2023-12-20T03:22:49;97584.72;;;21.40;50.72
65227;BME280;51805;49.012;12.104;2023-12-20T03:25:14;97580.66;;;21.38;50.54
65227;BME280;51805;49.012;12.104;2023-12-20T03:27:39;97575.81;;;21.35;50.65
65227;BME280;51805;49.012;12.104;2023-12-20T03:30:05;97591.72;;;21.41;50.39
65227;BME280;51805;49.012;12.104;2023-12-20T03:32:30;97586.59;;;21.40;50.88
65227;BME280;51805;49.012;12.104;2023-12-20T03:34:55;97590.63;;;21.42;50.68
65227;BME280;51805;49.012;12.104;2023-12-20T03:37:21;97593.34;;;21.42;50.56
65227;BME280;51805;49.012;12.104;2023-12-20T03:39:47;97597.13;;;21.41;50.78
65227;BME280;51805;49.012;12.104;2023-12-20T03:42:12;97602.53;;;21.47;50.54
65227;BME280;51805;49.012;12.104;2023-12-20T03:44:41;97604.97;;;21.43;50.63
65227;BME280;51805;49.012;12.104;2023-12-20T03:47:06;97603.94;;;21.39;50.70
65227;BME280;51805;49.012;12.104;2023-12-20T03:49:31;97601.22;;;21.39;50.81
65227;BME280;51805;49.012;12.104;2023-12-20T03:51:57;97599.34;;;21.34;50.58
65227;BME280;51805;49.012;12.104;2023-12-20T03:54:22;97616.91;;;21.37;50.78
65227;BME280;51805;49.012;12.104;2023-12-20T03:56:47;97612.31;;;21.37;50.52
65227;BME280;51805;49.012;12.104;2023-12-20T03:59:13;97602.84;;;21.35;50.59
65227;BME280;51805;49.012;12.104;2023-12-20T04:01:38;97606.09;;;21.37;50.63
65227;BME280;51805;49.012;12.104;2023-12-20T04:04:03;97618.50;;;21.38;50.78
65227;BME280;51805;49.012;12.104;2023-12-20T04:06:28;97619.06;;;21.35;50.96
65227;BME280;51805;49.012;12.104;2023-12-20T04:08:54;97603.97;;;21.29;50.82
65227;BME280;51805;49.012;12.104;2023-12-20T04:11:19;97612.63;;;21.31;50.76
65227;BME280;51805;49.012;12.104;2023-12-20T04:13:44;97612.34;;;21.32;50.68
65227;BME280;51805;49.012;12.104;2023-12-20T04:16:09;97624.47;;;21.35;50.85
65227;BME280;51805;49.012;12.104;2023-12-20T04:18:35;97619.34;;;21.33;50.74
65227;BME280;51805;49.012;12.104;2023-12-20T04:21:00;97618.31;;;21.29;50.89
65227;BME280;51805;49.012;12.104;2023-12-20T04:23:25;97597.53;;;21.20;50.76
65227;BME280;51805;49.012;12.104;2023-12-20T04:25:50;97612.63;;;21.26;50.95
65227;BME280;51805;49.012;12.104;2023-12-20T04:28:16;97623.72;;;21.29;50.93
65227;BME280;51805;49.012;12.104;2023-12-20T04:30:42;97609.94;;;21.26;51.06
65227;BME280;51805;49.012;12.104;2023-12-20T04:33:07;97619.94;;;21.25;50.84
65227;BME280;51805;49.012;12.104;2023-12-20T04:35:32;97623.44;;;21.26;51.04
65227;BME280;51805;49.012;12.104;2023-12-20T04:37:57;97612.66;;;21.21;50.97
65227;BME280;51805;49.012;12.104;2023-12-20T04:40:23;97618.06;;;21.21;50.82
65227;BME280;51805;49.012;12.104;2023-12-20T04:42:48;97622.91;;;21.24;51.05
65227;BME280;51805;49.012;12.104;2023-12-20T04:45:13;97614.84;;;21.19;51.12
65227;BME280;51805;49.012;12.104;2023-12-20T04:47:39;97622.13;;;21.23;51.33
65227;BME280;51805;49.012;12.104;2023-12-20T04:50:04;97626.72;;;21.23;51.17
65227;BME280;51805;49.012;12.104;2023-12-20T04:52:30;97614.31;;;21.17;51.02
65227;BME280;51805;49.012;12.104;2023-12-20T04:54:55;97611.06;;;21.15;51.14
65227;BME280;51805;49.012;12.104;2023-12-20T04:57:21;97615.13;;;21.17;50.96
65227;BME280;51805;49.012;12.104;2023-12-20T04:59:46;97617.00;;;21.22;51.12
65227;BME280;51805;49.012;12.104;2023-12-20T05:02:11;97612.97;;;21.14;50.99
65227;BME280;51805;49.012;12.104;2023-12-20T05:04:37;97614.31;;;21.22;50.93
65227;BME280;51805;49.012;12.104;2023-12-20T05:07:02;97616.47;;;21.20;51.20
65227;BME280;51805;49.012;12.104;2023-12-20T05:09:27;97610.53;;;21.13;51.33
65227;BME280;51805;49.012;12.104;2023-12-20T05:11:52;97607.88;;;21.08;51.23
65227;BME280;51805;49.012;12.104;2023-12-20T05:14:18;97618.66;;;21.13;51.21
65227;BME280;51805;49.012;12.104;2023-12-20T05:16:43;97616.75;;;21.18;51.29
65227;BME280;51805;49.012;12.104;2023-12-20T05:19:08;97608.69;;;21.08;51.41
65227;BME280;51805;49.012;12.104;2023-12-20T05:21:34;97619.75;;;21.12;51.46
65227;BME280;51805;49.012;12.104;2023-12-20T05:23:59;97619.75;;;21.12;51.39
65227;BME280;51805;49.012;12.104;2023-12-20T05:26:24;97628.38;;;21.14;51.45
65227;BME280;51805;49.012;12.104;2023-12-20T05:28:49;97626.81;;;21.08;51.48
65227;BME280;51805;49.012;12.104;2023-12-20T05:31:15;97636.50;;;21.09;51.33
65227;BME280;51805;49.012;12.104;2023-12-20T05:33:40;97639.75;;;21.11;51.32
65227;BME280;51805;49.012;12.104;2023-12-20T05:36:05;97621.41;;;21.03;51.55
65227;BME280;51805;49.012;12.104;2023-12-20T05:38:31;97639.47;;;21.17;51.45
65227;BME280;51805;49.012;12.104;2023-12-20T05:40:56;97638.94;;;21.10;51.36
65227;BME280;51805;49.012;12.104;2023-12-20T05:43:21;97645.66;;;21.18;51.29
65227;BME280;51805;49.012;12.104;2023-12-20T05:45:47;97629.53;;;21.03;51.14
65227;BME280;51805;49.012;12.104;2023-12-20T05:48:12;97653.25;;;21.16;51.16
65227;BME280;51805;49.012;12.104;2023-12-20T05:50:37;97648.38;;;21.13;51.13
65227;BME280;51805;49.012;12.104;2023-12-20T05:53:03;97657.00;;;21.20;51.23
65227;BME280;51805;49.012;12.104;2023-12-20T05:55:28;97666.72;;;21.21;51.24
65227;BME280;51805;49.012;12.104;2023-12-20T05:57:53;97677.53;;;21.21;51.16
65227;BME280;51805;49.012;12.104;2023-12-20T06:00:18;97678.63;;;21.20;51.01
65227;BME280;51805;49.012;12.104;2023-12-20T06:02:44;97672.41;;;21.19;51.21
65227;BME280;51805;49.012;12.104;2023-12-20T06:05:09;97678.88;;;21.23;51.03
65227;BME280;51805;49.012;12.104;2023-12-20T06:07:34;97680.75;;;21.23;50.94
65227;BME280;51805;49.012;12.104;2023-12-20T06:10:00;97696.69;;;21.24;51.03
65227;BME280;51805;49.012;12.104;2023-12-20T06:12:25;97682.41;;;21.19;51.15
65227;BME280;51805;49.012;12.104;2023-12-20T06:14:50;97693.72;;;21.26;51.13
65227;BME280;51805;49.012;12.104;2023-12-20T06:17:15;97688.03;;;21.27;51.08
65227;BME280;51805;49.012;12.104;2023-12-20T06:19:41;97702.66;;;21.26;51.08
65227;BME280;51805;49.012;12.104;2023-12-20T06:22:06;97678.91;;;21.18;50.89
65227;BME280;51805;49.012;12.104;2023-12-20T06:24:31;97690.47;;;21.24;51.05
65227;BME280;51805;49.012;12.104;2023-12-20T06:26:57;97709.66;;;21.27;50.98
65227;BME280;51805;49.012;12.104;2023-12-20T06:29:22;97712.34;;;21.32;50.76
65227;BME280;51805;49.012;12.104;2023-12-20T06:31:47;97703.16;;;21.28;50.82
65227;BME280;51805;49.012;12.104;2023-12-20T06:34:13;97691.03;;;21.26;50.87
65227;BME280;51805;49.012;12.104;2023-12-20T06:36:38;97705.88;;;21.28;50.87
65227;BME280;51805;49.012;12.104;2023-12-20T06:39:03;97710.44;;;21.33;50.76
65227;BME280;51805;49.012;12.104;2023-12-20T06:41:29;97712.06;;;21.34;50.66
65227;BME280;51805;49.012;12.104;2023-12-20T06:43:54;97705.56;;;21.35;50.75
65227;BME280;51805;49.012;12.104;2023-12-20T06:46:19;97695.31;;;21.32;50.72
65227;BME280;51805;49.012;12.104;2023-12-20T06:48:44;97691.00;;;21.31;50.66
65227;BME280;51805;49.012;12.104;2023-12-20T06:51:15;97708.53;;;21.38;50.75
65227;BME280;51805;49.012;12.104;2023-12-20T06:53:40;97684.78;;;21.25;50.66
65227;BME280;51805;49.012;12.104;2023-12-20T06:56:05;97726.91;;;21.41;50.71
65227;BME280;51805;49.012;12.104;2023-12-20T06:58:31;97729.59;;;21.41;50.50
65227;BME280;51805;49.012;12.104;2023-12-20T07:00:56;97734.72;;;21.43;50.44
65227;BME280;51805;49.012;12.104;2023-12-20T07:03:21;97727.47;;;21.38;50.44
65227;BME280;51805;49.012;12.104;2023-12-20T07:05:47;97741.75;;;21.44;50.69
65227;BME280;51805;49.012;12.104;2023-12-20T07:08:12;97734.19;;;21.46;50.61
65227;BME280;51805;49.012;12.104;2023-12-20T07:10:37;97744.44;;;21.49;50.41
65227;BME280;51805;49.012;12.104;2023-12-20T07:13:03;97747.97;;;21.50;50.49
65227;BME280;51805;49.012;12.104;2023-12-20T07:15:28;97744.44;;;21.49;50.84
65227;BME280;51805;49.012;12.104;2023-12-20T07:17:53;97742.56;;;21.50;51.65
65227;BME280;51805;49.012;12.104;2023-12-20T07:20:18;97750.34;;;21.56;51.32
65227;BME280;51805;49.012;12.104;2023-12-20T07:22:44;97740.59;;;21.60;52.44
65227;BME280;51805;49.012;12.104;2023-12-20T07:25:09;97748.69;;;21.65;52.11
65227;BME280;51805;49.012;12.104;2023-12-20T07:27:34;97760.84;;;21.63;52.70
65227;BME280;51805;49.012;12.104;2023-12-20T07:30:00;97764.94;;;21.60;51.77
65227;BME280;51805;49.012;12.104;2023-12-20T07:32:25;97752.78;;;21.58;51.94
65227;BME280;51805;49.012;12.104;2023-12-20T07:34:50;97757.66;;;21.61;52.12
65227;BME280;51805;49.012;12.104;2023-12-20T07:37:15;97761.97;;;21.62;51.90
65227;BME280;51805;49.012;12.104;2023-12-20T07:39:41;97772.75;;;21.67;51.58
65227;BME280;51805;49.012;12.104;2023-12-20T07:42:07;97782.75;;;21.66;51.48
65227;BME280;51805;49.012;12.104;2023-12-20T07:44:32;97782.75;;;21.66;51.52
65227;BME280;51805;49.012;12.104;2023-12-20T07:46:57;97787.34;;;21.66;51.27
65227;BME280;51805;49.012;12.104;2023-12-20T07:49:23;97793.31;;;21.63;51.49
65227;BME280;51805;49.012;12.104;2023-12-20T07:51:48;97797.09;;;21.67;51.32
65227;BME280;51805;49.012;12.104;2023-12-20T07:54:13;97803.84;;;21.69;51.27
65227;BME280;51805;49.012;12.104;2023-12-20T07:56:38;97809.78;;;21.71;51.11
65227;BME280;51805;49.012;12.104;2023-12-20T07:59:04;97807.88;;;21.72;50.95
65227;BME280;51805;49.012;12.104;2023-12-20T08:01:29;97811.13;;;21.74;50.89
65227;BME280;51805;49.012;12.104;2023-12-20T08:03:54;97797.38;;;21.65;50.93
65227;BME280;51805;49.012;12.104;2023-12-20T08:06:21;97800.84;;;21.71;50.89
65227;BME280;51805;49.012;12.104;2023-12-20T08:08:46;97799.75;;;21.72;50.98
65227;BME280;51805;49.012;12.104;2023-12-20T08:11:12;97808.69;;;21.72;50.84
65227;BME280;51805;49.012;12.104;2023-12-20T08:13:37;97810.06;;;21.75;50.70
65227;BME280;51805;49.012;12.104;2023-12-20T08:16:02;97820.59;;;21.76;50.87
65227;BME280;51805;49.012;12.104;2023-12-20T08:18:28;97813.00;;;21.73;50.77
65227;BME280;51805;49.012;12.104;2023-12-20T08:20:53;97822.78;;;21.79;50.59
65227;BME280;51805;49.012;12.104;2023-12-20T08:23:18;97819.53;;;21.77;50.60
65227;BME280;51805;49.012;12.104;2023-12-20T08:25:43;97823.28;;;21.81;50.39
65227;BME280;51805;49.012;12.104;2023-12-20T08:28:09;97822.22;;;21.77;50.51
65227;BME280;51805;49.012;12.104;2023-12-20T08:30:34;97829.50;;;21.82;50.66
65227;BME280;51805;49.012;12.104;2023-12-20T08:33:00;97812.50;;;21.71;50.42
65227;BME280;51805;49.012;12.104;2023-12-20T08:35:25;97834.09;;;21.81;50.47
65227;BME280;51805;49.012;12.104;2023-12-20T08:37:50;97821.13;;;21.73;50.50
65227;BME280;51805;49.012;12.104;2023-12-20T08:40:16;97823.28;;;21.76;50.46
65227;BME280;51805;49.012;12.104;2023-12-20T08:42:41;97824.41;;;21.75;50.25
65227;BME280;51805;49.012;12.104;2023-12-20T08:45:07;97830.88;;;21.79;50.33
65227;BME280;51805;49.012;12.104;2023-12-20T08:47:32;97838.41;;;21.87;50.29
65227;BME280;51805;49.012;12.104;2023-12-20T08:49:57;97836.78;;;21.86;50.38
65227;BME280;51805;49.012;12.104;2023-12-20T08:52:23;97826.53;;;21.83;50.23
65227;BME280;51805;49.012;12.104;2023-12-20T08:54:48;97827.31;;;21.89;49.96
65227;BME280;51805;49.012;12.104;2023-12-20T08:57:13;97820.28;;;21.83;50.09
65227;BME280;51805;49.012;12.104;2023-12-20T08:59:38;97829.22;;;21.88;49.99
65227;BME280;51805;49.012;12.104;2023-12-20T09:02:04;97824.38;;;21.85;49.79
65227;BME280;51805;49.012;12.104;2023-12-20T09:04:29;97828.13;;;21.89;49.97
65227;BME280;51805;49.012;12.104;2023-12-20T09:06:55;97829.44;;;21.92;49.82
65227;BME280;51805;49.012;12.104;2023-12-20T09:09:20;97812.44;;;21.91;49.88
65227;BME280;51805;49.012;12.104;2023-12-20T09:11:45;97805.94;;;21.87;49.86
65227;BME280;51805;49.012;12.104;2023-12-20T09:14:10;97818.88;;;21.95;49.81
65227;BME280;51805;49.012;12.104;2023-12-20T09:16:36;97801.59;;;21.91;49.63
65227;BME280;51805;49.012;12.104;2023-12-20T09:19:01;97803.78;;;21.89;49.62
65227;BME280;51805;49.012;12.104;2023-12-20T09:21:26;97814.03;;;21.92;49.51
65227;BME280;51805;49.012;12.104;2023-12-20T09:23:51;97811.31;;;21.97;49.64
65227;BME280;51805;49.012;12.104;2023-12-20T09:26:17;97821.03;;;21.98;49.54
65227;BME280;51805;49.012;12.104;2023-12-20T09:28:42;97815.63;;;21.98;49.38
65227;BME280;51805;49.012;12.104;2023-12-20T09:31:07;97820.22;;;21.98;49.45
65227;BME280;51805;49.012;12.104;2023-12-20T09:33:33;97826.16;;;22.00;49.25
65227;BME280;51805;49.012;12.104;2023-12-20T09:35:59;97821.31;;;21.97;49.34
65227;BME280;51805;49.012;12.104;2023-12-20T09:38:24;97829.94;;;22.04;49.27
65227;BME280;51805;49.012;12.104;2023-12-20T09:40:49;97823.19;;;22.01;49.23
65227;BME280;51805;49.012;12.104;2023-12-20T09:43:15;97823.16;;;22.06;48.97
65227;BME280;51805;49.012;12.104;2023-12-20T09:45:41;97807.50;;;21.98;49.03
65227;BME280;51805;49.012;12.104;2023-12-20T09:48:07;97816.13;;;22.05;48.99
65227;BME280;51805;49.012;12.104;2023-12-20T09:50:32;97806.38;;;22.04;48.90
65227;BME280;51805;49.012;12.104;2023-12-20T09:52:58;97808.81;;;22.06;49.13
65227;BME280;51805;49.012;12.104;2023-12-20T09:55:25;97808.53;;;22.07;49.04
65227;BME280;51805;49.012;12.104;2023-12-20T09:57:50;97799.38;;;22.03;49.07
65227;BME280;51805;49.012;12.104;2023-12-20T10:00:16;97790.41;;;22.08;49.13
65227;BME280;51805;49.012;12.104;2023-12-20T10:05:16;97797.41;;;22.09;48.99
65227;BME280;51805;49.012;12.104;2023-12-20T10:07:41;97800.94;;;22.09;48.74
65227;BME280;51805;49.012;12.104;2023-12-20T10:10:07;97797.72;;;22.07;48.70
65227;BME280;51805;49.012;12.104;2023-12-20T10:12:32;97795.81;;;22.08;48.83
65227;BME280;51805;49.012;12.104;2023-12-20T10:14:58;97779.56;;;22.08;48.62
65227;BME280;51805;49.012;12.104;2023-12-20T10:17:23;97789.28;;;22.14;48.60
65227;BME280;51805;49.012;12.104;2023-12-20T10:19:48;97786.84;;;22.12;48.59
65227;BME280;51805;49.012;12.104;2023-12-20T10:22:15;97791.72;;;22.15;48.66
65227;BME280;51805;49.012;12.104;2023-12-20T10:24:40;97798.22;;;22.14;48.66
65227;BME280;51805;49.012;12.104;2023-12-20T10:27:07;97802.22;;;22.22;48.38
65227;BME280;51805;49.012;12.104;2023-12-20T10:29:35;97798.13;;;22.24;48.37
65227;BME280;51805;49.012;12.104;2023-12-20T10:32:21;97792.44;;;22.26;48.32
65227;BME280;51805;49.012;12.104;2023-12-20T10:34:47;97779.25;;;22.19;48.15
65227;BME280;51805;49.012;12.104;2023-12-20T10:37:12;97800.34;;;22.22;48.25
65227;BME280;51805;49.012;12.104;2023-12-20T10:39:38;97793.56;;;22.20;48.22
65227;BME280;51805;49.012;12.104;2023-12-20T10:42:04;97804.66;;;22.23;48.08
65227;BME280;51805;49.012;12.104;2023-12-20T10:44:30;97785.72;;;22.18;48.31
65227;BME280;51805;49.012;12.104;2023-12-20T10:46:56;97790.09;;;22.14;48.22
65227;BME280;51805;49.012;12.104;2023-12-20T10:49:22;97797.38;;;22.19;48.24
65227;BME280;51805;49.012;12.104;2023-12-20T10:51:48;97819.28;;;22.22;48.25
65227;BME280;51805;49.012;12.104;2023-12-20T10:54:14;97822.56;;;22.19;48.24
65227;BME280;51805;49.012;12.104;2023-12-20T10:56:39;97810.63;;;22.20;48.04
65227;BME280;51805;49.012;12.104;2023-12-20T10:59:05;97803.03;;;22.22;48.23
65227;BME280;51805;49.012;12.104;2023-12-20T11:01:34;97793.00;;;22.23;48.07
65227;BME280;51805;49.012;12.104;2023-12-20T11:04:00;97788.41;;;22.23;47.70
65227;BME280;51805;49.012;12.104;2023-12-20T11:09:26;97794.88;;;22.27;47.81
65227;BME280;51805;49.012;12.104;2023-12-20T11:14:52;97799.22;;;22.28;47.66
65227;BME280;51805;49.012;12.104;2023-12-20T11:17:18;97787.28;;;22.29;47.63
65227;BME280;51805;49.012;12.104;2023-12-20T11:22:21;97763.19;;;22.28;47.62
65227;BME280;51805;49.012;12.104;2023-12-20T11:24:48;97767.78;;;22.32;47.59
65227;BME280;51805;49.012;12.104;2023-12-20T11:27:14;97760.78;;;22.26;47.57
65227;BME280;51805;49.012;12.104;2023-12-20T11:29:40;97765.63;;;22.29;47.75
65227;BME280;51805;49.012;12.104;2023-12-20T11:34:54;97767.19;;;22.35;47.62
65227;BME280;51805;49.012;12.104;2023-12-20T11:37:20;97768.31;;;22.34;47.66
65227;BME280;51805;49.012;12.104;2023-12-20T11:39:45;97767.19;;;22.35;47.60
65227;BME280;51805;49.012;12.104;2023-12-20T11:42:10;97751.00;;;22.30;47.53
65227;BME280;51805;49.012;12.104;2023-12-20T11:44:39;97745.53;;;22.35;47.43
65227;BME280;51805;49.012;12.104;2023-12-20T11:47:04;97755.28;;;22.36;47.79
65227;BME280;51805;49.012;12.104;2023-12-20T11:49:29;97743.16;;;22.29;47.48
65227;BME280;51805;49.012;12.104;2023-12-20T11:51:55;97749.06;;;22.36;47.29
65227;BME280;51805;49.012;12.104;2023-12-20T11:54:23;97750.41;;;22.33;47.42
65227;BME280;51805;49.012;12.104;2023-12-20T11:56:52;97742.84;;;22.35;47.29
65227;BME280;51805;49.012;12.104;2023-12-20T11:59:17;97745.78;;;22.39;47.44
65227;BME280;51805;49.012;12.104;2023-12-20T12:01:48;97740.91;;;22.41;47.45
65227;BME280;51805;49.012;12.104;2023-12-20T12:04:14;97714.72;;;22.31;47.34
65227;BME280;51805;49.012;12.104;2023-12-20T12:06:39;97723.91;;;22.30;47.25
65227;BME280;51805;49.012;12.104;2023-12-20T12:09:04;97725.31;;;22.28;47.10
65227;BME280;51805;49.012;12.104;2023-12-20T12:11:29;97720.13;;;22.31;47.11
65227;BME280;51805;49.012;12.104;2023-12-20T12:13:55;97730.63;;;22.38;47.21
65227;BME280;51805;49.012;12.104;2023-12-20T12:16:20;97729.59;;;22.34;47.32
65227;BME280;51805;49.012;12.104;2023-12-20T12:18:46;97729.03;;;22.32;47.20
65227;BME280;51805;49.012;12.104;2023-12-20T12:21:19;97735.81;;;22.34;47.25
65227;BME280;51805;49.012;12.104;2023-12-20T12:23:44;97710.75;;;22.19;47.32
65227;BME280;51805;49.012;12.104;2023-12-20T12:26:09;97722.88;;;22.26;47.31
65227;BME280;51805;49.012;12.104;2023-12-20T12:28:34;97725.34;;;22.23;47.17
65227;BME280;51805;49.012;12.104;2023-12-20T12:31:00;97729.63;;;22.29;47.29
65227;BME280;51805;49.012;12.104;2023-12-20T12:33:26;97745.81;;;22.34;47.10
65227;BME280;51805;49.012;12.104;2023-12-20T12:35:51;97757.78;;;22.28;47.28
65227;BME280;51805;49.012;12.104;2023-12-20T12:38:20;97740.53;;;22.19;47.30
65227;BME280;51805;49.012;12.104;2023-12-20T12:40:46;97753.41;;;22.32;47.23
65227;BME280;51805;49.012;12.104;2023-12-20T12:43:11;97748.34;;;22.25;47.19
65227;BME280;51805;49.012;12.104;2023-12-20T12:45:36;97741.28;;;22.24;47.29
65227;BME280;51805;49.012;12.104;2023-12-20T12:48:02;97751.00;;;22.30;47.29
65227;BME280;51805;49.012;12.104;2023-12-20T12:50:27;97727.53;;;22.21;47.39
65227;BME280;51805;49.012;12.104;2023-12-20T12:52:52;97684.66;;;21.99;47.19
65227;BME280;51805;49.012;12.104;2023-12-20T12:55:17;97727.75;;;22.24;47.10